sensor_id;sensor_type;location;lat;lon;timestamp;pressure;altitude;pressure_sealevel;temperature;humidity
6506;BME280;3286;49.858;8.768;2023-02-21T00:00:05;99658.28;;;11.25;49.69
6506;BME280;3286;49.858;8.768;2023-02-21T00:02:49;99641.69;;;11.42;49.24
6506;BME280;3286;49.858;8.768;2023-02-21T00:05:33;99642.91;;;11.00;49.96
6506;BME280;3286;49.858;8.768;2023-02-21T00:08:17;99645.16;;;11.33;49.43
6506;BME280;3286;49.858;8.768;2023-02-21T00:11:01;99644.09;;;11.64;48.53
6506;BME280;3286;49.858;8.768;2023-02-21T00:13:45;99643.72;;;11.01;49.63
6506;BME280;3286;49.858;8.768;2023-02-21T00:16:30;99641.69;;;10.85;50.80
6506;BME280;3286;49.858;8.768;2023-02-21T00:19:14;99636.72;;;11.57;48.60
6506;BME280;3286;49.858;8.768;2023-02-21T00:21:59;99644.25;;;11.24;49.13
6506;BME280;3286;49.858;8.768;2023-02-21T00:24:43;99643.41;;;11.24;49.79
6506;BME280;3286;49.858;8.768;2023-02-21T00:27:27;99648.25;;;11.28;49.44
6506;BME280;3286;49.858;8.768;2023-02-21T00:30:13;99643.34;;;10.86;49.83
6506;BME280;3286;49.858;8.768;2023-02-21T00:32:58;99640.63;;;11.15;49.76
6506;BME280;3286;49.858;8.768;2023-02-21T00:35:42;99632.25;;;11.20;49.67
6506;BME280;3286;49.858;8.768;2023-02-21T00:38:26;99638.75;;;10.78;50.40
6506;BME280;3286;49.858;8.768;2023-02-21T00:41:10;99637.31;;;11.04;49.99
6506;BME280;3286;49.858;8.768;2023-02-21T00:43:54;99639.19;;;11.31;49.11
6506;BME280;3286;49.858;8.768;2023-02-21T00:46:38;99635.47;;;11.24;49.15
6506;BME280;3286;49.858;8.768;2023-02-21T00:49:24;99630.22;;;11.52;48.77
6506;BME280;3286;49.858;8.768;2023-02-21T00:52:08;99627.75;;;11.40;49.26
6506;BME280;3286;49.858;8.768;2023-02-21T00:54:52;99623.81;;;11.07;49.90
6506;BME280;3286;49.858;8.768;2023-02-21T00:57:36;99630.41;;;10.83;50.14
6506;BME280;3286;49.858;8.768;2023-02-21T01:00:21;99628.88;;;10.90;50.63
6506;BME280;3286;49.858;8.768;2023-02-21T01:03:06;99639.38;;;11.20;49.71
6506;BME280;3286;49.858;8.768;2023-02-21T01:05:53;99623.41;;;11.01;50.08
6506;BME280;3286;49.858;8.768;2023-02-21T01:08:40;99626.94;;;10.72;50.49
6506;BME280;3286;49.858;8.768;2023-02-21T01:11:24;99621.53;;;10.64;51.17
6506;BME280;3286;49.858;8.768;2023-02-21T01:14:09;99624.81;;;10.96;50.00
6506;BME280;3286;49.858;8.768;2023-02-21T01:16:52;99623.53;;;11.10;49.42
6506;BME280;3286;49.858;8.768;2023-02-21T01:19:36;99616.53;;;10.71;50.74
6506;BME280;3286;49.858;8.768;2023-02-21T01:22:22;99623.19;;;10.65;50.26
6506;BME280;3286;49.858;8.768;2023-02-21T01:25:06;99633.75;;;10.36;52.17
6506;BME280;3286;49.858;8.768;2023-02-21T01:27:52;99638.56;;;10.01;52.69
6506;BME280;3286;49.858;8.768;2023-02-21T01:30:36;99634.97;;;10.22;52.52
6506;BME280;3286;49.858;8.768;2023-02-21T01:33:20;99638.63;;;10.50;51.77
6506;BME280;3286;49.858;8.768;2023-02-21T01:36:05;99639.44;;;10.70;50.94
6506;BME280;3286;49.858;8.768;2023-02-21T01:38:51;99640.72;;;10.66;50.51
6506;BME280;3286;49.858;8.768;2023-02-21T01:41:34;99635.97;;;10.80;50.28
6506;BME280;3286;49.858;8.768;2023-02-21T01:44:35;99645.03;;;10.77;50.64
6506;BME280;3286;49.858;8.768;2023-02-21T01:47:20;99633.63;;;10.57;51.17
6506;BME280;3286;49.858;8.768;2023-02-21T01:50:09;99637.09;;;10.57;51.06
6506;BME280;3286;49.858;8.768;2023-02-21T01:52:55;99633.06;;;10.83;49.98
6506;BME280;3286;49.858;8.768;2023-02-21T01:55:41;99631.50;;;10.90;50.38
6506;BME280;3286;49.858;8.768;2023-02-21T01:58:28;99630.13;;;10.56;50.77
6506;BME280;3286;49.858;8.768;2023-02-21T02:01:19;99620.00;;;10.62;50.61
6506;BME280;3286;49.858;8.768;2023-02-21T02:04:04;99624.56;;;10.79;50.42
6506;BME280;3286;49.858;8.768;2023-02-21T02:06:48;99625.53;;;10.58;50.53
6506;BME280;3286;49.858;8.768;2023-02-21T02:09:33;99620.72;;;10.64;50.09
6506;BME280;3286;49.858;8.768;2023-02-21T02:12:49;99611.38;;;10.60;50.27
6506;BME280;3286;49.858;8.768;2023-02-21T02:18:25;99615.81;;;10.49;50.77
6506;BME280;3286;49.858;8.768;2023-02-21T02:21:28;99616.09;;;10.46;50.20
6506;BME280;3286;49.858;8.768;2023-02-21T02:34:02;99611.19;;;9.92;50.91
6506;BME280;3286;49.858;8.768;2023-02-21T02:36:36;99614.91;;;9.90;51.51
6506;BME280;3286;49.858;8.768;2023-02-21T02:39:14;99604.94;;;9.93;51.12
6506;BME280;3286;49.858;8.768;2023-02-21T02:41:46;99603.53;;;9.89;51.92
6506;BME280;3286;49.858;8.768;2023-02-21T02:44:19;99603.66;;;9.88;51.55
6506;BME280;3286;49.858;8.768;2023-02-21T02:46:48;99601.19;;;10.06;50.64
6506;BME280;3286;49.858;8.768;2023-02-21T02:49:18;99609.09;;;10.06;50.31
6506;BME280;3286;49.858;8.768;2023-02-21T02:51:47;99606.03;;;9.81;50.52
6506;BME280;3286;49.858;8.768;2023-02-21T02:54:14;99605.84;;;9.63;50.87
6506;BME280;3286;49.858;8.768;2023-02-21T02:56:41;99596.81;;;9.34;50.55
6506;BME280;3286;49.858;8.768;2023-02-21T02:59:10;99604.03;;;9.32;50.85
6506;BME280;3286;49.858;8.768;2023-02-21T03:01:51;99608.13;;;8.94;52.42
6506;BME280;3286;49.858;8.768;2023-02-21T03:04:32;99603.38;;;9.09;51.96
6506;BME280;3286;49.858;8.768;2023-02-21T03:07:07;99603.09;;;9.12;52.04
6506;BME280;3286;49.858;8.768;2023-02-21T03:09:47;99601.66;;;9.29;52.60
6506;BME280;3286;49.858;8.768;2023-02-21T03:12:24;99611.66;;;9.25;51.88
6506;BME280;3286;49.858;8.768;2023-02-21T03:15:02;99615.28;;;9.03;52.98
6506;BME280;3286;49.858;8.768;2023-02-21T03:17:35;99613.38;;;8.84;53.22
6506;BME280;3286;49.858;8.768;2023-02-21T03:20:04;99613.03;;;8.77;53.76
6506;BME280;3286;49.858;8.768;2023-02-21T03:22:33;99615.69;;;8.77;54.00
6506;BME280;3286;49.858;8.768;2023-02-21T03:25:01;99623.66;;;8.87;53.24
6506;BME280;3286;49.858;8.768;2023-02-21T03:27:29;99620.75;;;8.69;53.32
6506;BME280;3286;49.858;8.768;2023-02-21T03:29:59;99618.63;;;8.63;53.06
6506;BME280;3286;49.858;8.768;2023-02-21T03:32:29;99617.59;;;8.75;53.09
6506;BME280;3286;49.858;8.768;2023-02-21T03:34:57;99617.22;;;9.01;52.28
6506;BME280;3286;49.858;8.768;2023-02-21T03:37:29;99622.78;;;9.08;52.62
6506;BME280;3286;49.858;8.768;2023-02-21T03:39:58;99607.72;;;9.20;52.69
6506;BME280;3286;49.858;8.768;2023-02-21T03:42:25;99609.34;;;9.11;53.51
6506;BME280;3286;49.858;8.768;2023-02-21T03:44:51;99608.47;;;9.01;53.82
6506;BME280;3286;49.858;8.768;2023-02-21T03:47:18;99600.66;;;8.89;54.37
6506;BME280;3286;49.858;8.768;2023-02-21T03:49:45;99603.66;;;8.84;53.88
6506;BME280;3286;49.858;8.768;2023-02-21T03:52:12;99598.97;;;8.88;54.38
6506;BME280;3286;49.858;8.768;2023-02-21T03:54:38;99603.66;;;8.84;53.99
6506;BME280;3286;49.858;8.768;2023-02-21T03:57:06;99601.16;;;8.62;54.64
6506;BME280;3286;49.858;8.768;2023-02-21T03:59:33;99597.75;;;8.50;54.86
6506;BME280;3286;49.858;8.768;2023-02-21T04:02:00;99599.69;;;8.90;54.22
6506;BME280;3286;49.858;8.768;2023-02-21T04:04:26;99596.16;;;8.59;54.54
6506;BME280;3286;49.858;8.768;2023-02-21T04:06:53;99591.97;;;8.77;54.28
6506;BME280;3286;49.858;8.768;2023-02-21T04:09:20;99604.94;;;8.90;53.09
6506;BME280;3286;49.858;8.768;2023-02-21T04:11:47;99601.78;;;8.96;53.28
6506;BME280;3286;49.858;8.768;2023-02-21T04:14:15;99590.28;;;8.55;54.82
6506;BME280;3286;49.858;8.768;2023-02-21T04:16:42;99590.88;;;8.80;53.60
6506;BME280;3286;49.858;8.768;2023-02-21T04:19:09;99593.19;;;8.73;53.11
6506;BME280;3286;49.858;8.768;2023-02-21T04:21:35;99582.25;;;8.57;54.25
6506;BME280;3286;49.858;8.768;2023-02-21T04:24:02;99585.31;;;8.40;54.25
6506;BME280;3286;49.858;8.768;2023-02-21T04:26:29;99585.22;;;8.63;53.93
6506;BME280;3286;49.858;8.768;2023-02-21T04:28:56;99588.03;;;8.93;53.50
6506;BME280;3286;49.858;8.768;2023-02-21T04:31:24;99586.88;;;8.64;54.87
6506;BME280;3286;49.858;8.768;2023-02-21T04:33:50;99590.31;;;8.76;54.78
6506;BME280;3286;49.858;8.768;2023-02-21T04:36:17;99586.44;;;8.59;55.61
6506;BME280;3286;49.858;8.768;2023-02-21T04:38:44;99592.78;;;8.57;55.30
6506;BME280;3286;49.858;8.768;2023-02-21T04:41:11;99588.44;;;8.67;55.88
6506;BME280;3286;49.858;8.768;2023-02-21T04:43:37;99596.78;;;8.72;54.87
6506;BME280;3286;49.858;8.768;2023-02-21T04:46:07;99595.69;;;8.75;55.55
6506;BME280;3286;49.858;8.768;2023-02-21T04:48:35;99590.63;;;8.62;55.18
6506;BME280;3286;49.858;8.768;2023-02-21T04:51:01;99594.78;;;8.64;55.20
6506;BME280;3286;49.858;8.768;2023-02-21T04:53:28;99592.94;;;8.76;54.95
6506;BME280;3286;49.858;8.768;2023-02-21T04:55:54;99592.41;;;8.82;55.07
6506;BME280;3286;49.858;8.768;2023-02-21T04:58:21;99594.16;;;8.72;55.21
6506;BME280;3286;49.858;8.768;2023-02-21T05:00:48;99588.69;;;8.85;54.96
6506;BME280;3286;49.858;8.768;2023-02-21T05:03:14;99593.56;;;8.90;54.30
6506;BME280;3286;49.858;8.768;2023-02-21T05:05:44;99592.41;;;8.82;55.45
6506;BME280;3286;49.858;8.768;2023-02-21T05:08:10;99591.25;;;8.96;54.74
6506;BME280;3286;49.858;8.768;2023-02-21T05:10:37;99578.66;;;9.00;54.66
6506;BME280;3286;49.858;8.768;2023-02-21T05:13:03;99583.00;;;9.11;53.51
6506;BME280;3286;49.858;8.768;2023-02-21T05:15:30;99586.84;;;9.07;54.52
6506;BME280;3286;49.858;8.768;2023-02-21T05:17:57;99580.19;;;9.03;54.84
6506;BME280;3286;49.858;8.768;2023-02-21T05:20:23;99585.28;;;9.25;53.61
6506;BME280;3286;49.858;8.768;2023-02-21T05:22:51;99588.38;;;8.78;54.92
6506;BME280;3286;49.858;8.768;2023-02-21T05:25:20;99580.72;;;8.75;54.47
6506;BME280;3286;49.858;8.768;2023-02-21T05:27:48;99579.50;;;8.79;54.06
6506;BME280;3286;49.858;8.768;2023-02-21T05:30:18;99572.91;;;8.64;54.43
6506;BME280;3286;49.858;8.768;2023-02-21T05:32:44;99569.69;;;8.60;54.64
6506;BME280;3286;49.858;8.768;2023-02-21T05:35:13;99576.53;;;8.73;54.81
6506;BME280;3286;49.858;8.768;2023-02-21T05:37:40;99570.13;;;8.65;54.96
6506;BME280;3286;49.858;8.768;2023-02-21T05:40:09;99565.94;;;8.41;55.51
6506;BME280;3286;49.858;8.768;2023-02-21T05:42:36;99563.19;;;8.64;54.70
6506;BME280;3286;49.858;8.768;2023-02-21T05:45:03;99573.53;;;8.56;55.02
6506;BME280;3286;49.858;8.768;2023-02-21T05:47:32;99576.22;;;8.33;55.24
6506;BME280;3286;49.858;8.768;2023-02-21T05:49:59;99569.00;;;8.25;56.31
6506;BME280;3286;49.858;8.768;2023-02-21T05:52:26;99574.69;;;8.84;54.33
6506;BME280;3286;49.858;8.768;2023-02-21T05:54:53;99581.34;;;8.89;54.31
6506;BME280;3286;49.858;8.768;2023-02-21T05:57:21;99571.97;;;8.53;54.43
6506;BME280;3286;49.858;8.768;2023-02-21T05:59:47;99575.19;;;8.57;54.68
6506;BME280;3286;49.858;8.768;2023-02-21T06:02:14;99574.59;;;8.75;54.29
6506;BME280;3286;49.858;8.768;2023-02-21T06:04:41;99570.34;;;9.05;54.01
6506;BME280;3286;49.858;8.768;2023-02-21T06:07:07;99564.84;;;8.65;54.78
6506;BME280;3286;49.858;8.768;2023-02-21T06:09:34;99574.50;;;8.55;55.48
6506;BME280;3286;49.858;8.768;2023-02-21T06:12:00;99574.53;;;8.44;55.70
6506;BME280;3286;49.858;8.768;2023-02-21T06:14:28;99579.63;;;8.57;54.88
6506;BME280;3286;49.858;8.768;2023-02-21T06:16:55;99568.59;;;8.63;54.91
6506;BME280;3286;49.858;8.768;2023-02-21T06:19:22;99565.56;;;8.67;54.54
6506;BME280;3286;49.858;8.768;2023-02-21T06:21:48;99564.72;;;8.88;54.45
6506;BME280;3286;49.858;8.768;2023-02-21T06:24:15;99569.53;;;8.40;55.63
6506;BME280;3286;49.858;8.768;2023-02-21T06:26:41;99575.56;;;8.52;55.83
6506;BME280;3286;49.858;8.768;2023-02-21T06:29:10;99571.97;;;8.53;55.83
6506;BME280;3286;49.858;8.768;2023-02-21T06:31:38;99567.69;;;8.52;56.13
6506;BME280;3286;49.858;8.768;2023-02-21T06:34:04;99575.50;;;8.43;55.91
6506;BME280;3286;49.858;8.768;2023-02-21T06:36:31;99569.59;;;8.72;55.17
6506;BME280;3286;49.858;8.768;2023-02-21T06:38:58;99573.59;;;8.66;55.00
6506;BME280;3286;49.858;8.768;2023-02-21T06:41:25;99569.56;;;8.62;55.36
6506;BME280;3286;49.858;8.768;2023-02-21T06:43:53;99570.47;;;8.18;57.41
6506;BME280;3286;49.858;8.768;2023-02-21T06:46:22;99575.84;;;8.70;56.15
6506;BME280;3286;49.858;8.768;2023-02-21T06:48:50;99577.31;;;8.84;55.28
6506;BME280;3286;49.858;8.768;2023-02-21T06:51:17;99575.75;;;9.03;55.36
6506;BME280;3286;49.858;8.768;2023-02-21T06:53:46;99582.59;;;9.16;54.92
6506;BME280;3286;49.858;8.768;2023-02-21T06:56:14;99580.88;;;9.05;54.91
6506;BME280;3286;49.858;8.768;2023-02-21T06:58:40;99580.28;;;9.22;55.79
6506;BME280;3286;49.858;8.768;2023-02-21T07:01:07;99584.25;;;8.86;56.60
6506;BME280;3286;49.858;8.768;2023-02-21T07:03:38;99583.03;;;9.21;55.70
6506;BME280;3286;49.858;8.768;2023-02-21T07:06:06;99578.88;;;9.59;54.80
6506;BME280;3286;49.858;8.768;2023-02-21T07:08:32;99577.41;;;9.76;54.81
6506;BME280;3286;49.858;8.768;2023-02-21T07:10:59;99583.56;;;9.15;56.25
6506;BME280;3286;49.858;8.768;2023-02-21T07:13:26;99580.84;;;9.26;55.89
6506;BME280;3286;49.858;8.768;2023-02-21T07:15:53;99583.22;;;9.70;54.54
6506;BME280;3286;49.858;8.768;2023-02-21T07:18:19;99587.41;;;9.82;54.22
6506;BME280;3286;49.858;8.768;2023-02-21T07:20:46;99586.75;;;9.08;56.43
6506;BME280;3286;49.858;8.768;2023-02-21T07:23:15;99582.44;;;10.28;53.10
6506;BME280;3286;49.858;8.768;2023-02-21T07:25:41;99571.72;;;10.30;53.15
6506;BME280;3286;49.858;8.768;2023-02-21T07:28:09;99580.09;;;10.25;52.45
6506;BME280;3286;49.858;8.768;2023-02-21T07:30:35;99577.97;;;10.19;53.10
6506;BME280;3286;49.858;8.768;2023-02-21T07:33:02;99575.34;;;10.09;53.07
6506;BME280;3286;49.858;8.768;2023-02-21T07:35:29;99575.91;;;10.23;53.51
6506;BME280;3286;49.858;8.768;2023-02-21T07:37:56;99582.31;;;10.20;52.72
6506;BME280;3286;49.858;8.768;2023-02-21T07:40:24;99580.53;;;10.40;53.33
6506;BME280;3286;49.858;8.768;2023-02-21T07:42:50;99589.50;;;9.98;54.10
6506;BME280;3286;49.858;8.768;2023-02-21T07:45:17;99575.22;;;10.21;53.69
6506;BME280;3286;49.858;8.768;2023-02-21T07:47:44;99583.16;;;10.50;52.74
6506;BME280;3286;49.858;8.768;2023-02-21T07:50:11;99584.38;;;10.76;51.70
6506;BME280;3286;49.858;8.768;2023-02-21T07:52:37;99590.03;;;11.00;51.25
6506;BME280;3286;49.858;8.768;2023-02-21T07:55:04;99584.72;;;11.10;51.35
6506;BME280;3286;49.858;8.768;2023-02-21T07:57:32;99579.56;;;11.09;51.63
6506;BME280;3286;49.858;8.768;2023-02-21T07:59:59;99585.59;;;11.29;50.64
6506;BME280;3286;49.858;8.768;2023-02-21T08:02:26;99587.59;;;11.17;51.05
6506;BME280;3286;49.858;8.768;2023-02-21T08:04:52;99591.28;;;11.34;51.13
6506;BME280;3286;49.858;8.768;2023-02-21T08:07:19;99587.09;;;11.69;49.83
6506;BME280;3286;49.858;8.768;2023-02-21T08:09:45;99593.81;;;11.36;50.59
6506;BME280;3286;49.858;8.768;2023-02-21T08:12:12;99593.16;;;11.80;49.87
6506;BME280;3286;49.858;8.768;2023-02-21T08:14:40;99592.28;;;11.89;49.71
6506;BME280;3286;49.858;8.768;2023-02-21T08:17:07;99593.84;;;11.82;49.72
6506;BME280;3286;49.858;8.768;2023-02-21T08:19:33;99593.56;;;11.85;49.66
6506;BME280;3286;49.858;8.768;2023-02-21T08:22:00;99590.56;;;12.16;48.73
6506;BME280;3286;49.858;8.768;2023-02-21T08:24:27;99591.19;;;12.46;48.05
6506;BME280;3286;49.858;8.768;2023-02-21T08:26:53;99591.47;;;12.43;48.52
6506;BME280;3286;49.858;8.768;2023-02-21T08:29:20;99589.25;;;12.56;48.36
6506;BME280;3286;49.858;8.768;2023-02-21T08:31:48;99588.25;;;13.02;47.22
6506;BME280;3286;49.858;8.768;2023-02-21T08:34:15;99583.94;;;13.01;46.72
6506;BME280;3286;49.858;8.768;2023-02-21T08:36:43;99583.38;;;12.89;47.01
6506;BME280;3286;49.858;8.768;2023-02-21T08:39:11;99578.75;;;12.91;46.90
6506;BME280;3286;49.858;8.768;2023-02-21T08:41:42;99578.47;;;13.37;45.85
6506;BME280;3286;49.858;8.768;2023-02-21T08:44:12;99571.88;;;13.84;45.16
6506;BME280;3286;49.858;8.768;2023-02-21T08:46:41;99573.22;;;12.84;47.24
6506;BME280;3286;49.858;8.768;2023-02-21T08:49:13;99574.38;;;12.37;47.45
6506;BME280;3286;49.858;8.768;2023-02-21T08:51:44;99573.91;;;12.60;47.53
6506;BME280;3286;49.858;8.768;2023-02-21T08:54:13;99566.34;;;12.47;48.22
6506;BME280;3286;49.858;8.768;2023-02-21T08:56:39;99564.72;;;12.00;49.26
6506;BME280;3286;49.858;8.768;2023-02-21T08:59:07;99568.00;;;13.27;46.24
6506;BME280;3286;49.858;8.768;2023-02-21T09:01:37;99572.00;;;13.05;45.85
6506;BME280;3286;49.858;8.768;2023-02-21T09:04:05;99564.59;;;13.09;46.46
6506;BME280;3286;49.858;8.768;2023-02-21T09:06:36;99567.44;;;13.50;45.59
6506;BME280;3286;49.858;8.768;2023-02-21T09:09:03;99559.44;;;13.93;44.55
6506;BME280;3286;49.858;8.768;2023-02-21T09:11:34;99569.94;;;12.20;47.63
6506;BME280;3286;49.858;8.768;2023-02-21T09:14:05;99563.88;;;12.27;48.57
6506;BME280;3286;49.858;8.768;2023-02-21T09:16:32;99565.50;;;12.65;47.93
6506;BME280;3286;49.858;8.768;2023-02-21T09:18:59;99565.28;;;12.58;47.77
6506;BME280;3286;49.858;8.768;2023-02-21T09:21:27;99568.16;;;13.60;46.00
6506;BME280;3286;49.858;8.768;2023-02-21T09:23:55;99567.69;;;13.30;46.23
6506;BME280;3286;49.858;8.768;2023-02-21T09:26:23;99565.50;;;13.26;45.99
6506;BME280;3286;49.858;8.768;2023-02-21T09:28:50;99562.09;;;13.42;45.89
6506;BME280;3286;49.858;8.768;2023-02-21T09:31:17;99566.72;;;13.40;45.37
6506;BME280;3286;49.858;8.768;2023-02-21T09:33:44;99563.88;;;12.72;46.90
6506;BME280;3286;49.858;8.768;2023-02-21T09:36:11;99567.22;;;10.90;51.12
6506;BME280;3286;49.858;8.768;2023-02-21T09:38:38;99562.34;;;11.33;50.63
6506;BME280;3286;49.858;8.768;2023-02-21T09:41:09;99567.41;;;12.81;46.65
6506;BME280;3286;49.858;8.768;2023-02-21T09:43:38;99566.22;;;13.79;45.30
6506;BME280;3286;49.858;8.768;2023-02-21T09:46:11;99558.50;;;14.77;42.95
6506;BME280;3286;49.858;8.768;2023-02-21T09:48:39;99554.84;;;15.34;42.33
6506;BME280;3286;49.858;8.768;2023-02-21T09:51:08;99564.47;;;14.79;42.81
6506;BME280;3286;49.858;8.768;2023-02-21T09:53:38;99557.97;;;14.90;43.38
6506;BME280;3286;49.858;8.768;2023-02-21T09:56:10;99557.38;;;15.19;42.87
6506;BME280;3286;49.858;8.768;2023-02-21T09:58:40;99568.03;;;13.79;45.64
6506;BME280;3286;49.858;8.768;2023-02-21T10:01:16;99561.31;;;14.75;43.94
6506;BME280;3286;49.858;8.768;2023-02-21T10:03:47;99561.28;;;15.40;42.17
6506;BME280;3286;49.858;8.768;2023-02-21T10:06:27;99557.41;;;15.51;41.99
6506;BME280;3286;49.858;8.768;2023-02-21T10:08:59;99556.69;;;15.26;42.08
6506;BME280;3286;49.858;8.768;2023-02-21T10:11:40;99552.16;;;14.61;43.18
6506;BME280;3286;49.858;8.768;2023-02-21T10:14:18;99561.56;;;13.38;45.89
6506;BME280;3286;49.858;8.768;2023-02-21T10:16:52;99551.00;;;14.64;43.18
6506;BME280;3286;49.858;8.768;2023-02-21T10:19:25;99558.69;;;15.24;42.24
6506;BME280;3286;49.858;8.768;2023-02-21T10:21:56;99554.84;;;14.78;43.21
6506;BME280;3286;49.858;8.768;2023-02-21T10:24:26;99553.56;;;15.85;41.39
6506;BME280;3286;49.858;8.768;2023-02-21T10:26:58;99548.31;;;16.47;39.85
6506;BME280;3286;49.858;8.768;2023-02-21T10:29:36;99540.28;;;16.32;39.85
6506;BME280;3286;49.858;8.768;2023-02-21T10:32:04;99542.19;;;16.76;38.61
6506;BME280;3286;49.858;8.768;2023-02-21T10:34:32;99548.91;;;16.72;38.84
6506;BME280;3286;49.858;8.768;2023-02-21T10:37:04;99540.22;;;17.23;38.64
6506;BME280;3286;49.858;8.768;2023-02-21T10:39:42;99539.59;;;17.58;37.55
6506;BME280;3286;49.858;8.768;2023-02-21T10:42:17;99539.63;;;16.83;39.05
6506;BME280;3286;49.858;8.768;2023-02-21T10:44:51;99541.53;;;15.26;41.40
6506;BME280;3286;49.858;8.768;2023-02-21T10:47:33;99538.34;;;16.79;40.06
6506;BME280;3286;49.858;8.768;2023-02-21T10:50:05;99540.22;;;17.23;40.07
6506;BME280;3286;49.858;8.768;2023-02-21T10:52:35;99538.66;;;17.66;38.89
6506;BME280;3286;49.858;8.768;2023-02-21T10:55:05;99530.13;;;17.56;37.96
6506;BME280;3286;49.858;8.768;2023-02-21T10:57:39;99544.09;;;16.68;39.82
6506;BME280;3286;49.858;8.768;2023-02-21T11:00:08;99533.66;;;17.26;38.21
6506;BME280;3286;49.858;8.768;2023-02-21T11:02:36;99531.00;;;17.26;39.21
6506;BME280;3286;49.858;8.768;2023-02-21T11:05:13;99527.47;;;16.95;39.30
6506;BME280;3286;49.858;8.768;2023-02-21T11:07:42;99511.25;;;17.42;38.99
6506;BME280;3286;49.858;8.768;2023-02-21T11:10:27;99516.72;;;17.92;38.32
6506;BME280;3286;49.858;8.768;2023-02-21T11:13:04;99508.63;;;18.01;36.96
6506;BME280;3286;49.858;8.768;2023-02-21T11:15:31;99511.63;;;18.41;36.86
6506;BME280;3286;49.858;8.768;2023-02-21T11:18:16;99508.94;;;18.98;35.92
6506;BME280;3286;49.858;8.768;2023-02-21T11:20:45;99509.25;;;18.24;36.62
6506;BME280;3286;49.858;8.768;2023-02-21T11:23:21;99508.25;;;18.32;37.06
6506;BME280;3286;49.858;8.768;2023-02-21T11:25:51;99510.75;;;18.62;36.44
6506;BME280;3286;49.858;8.768;2023-02-21T11:28:24;99507.66;;;18.59;35.82
6506;BME280;3286;49.858;8.768;2023-02-21T11:31:05;99497.31;;;18.91;36.05
6506;BME280;3286;49.858;8.768;2023-02-21T11:33:36;99489.88;;;19.15;35.06
6506;BME280;3286;49.858;8.768;2023-02-21T11:36:10;99480.09;;;18.08;37.05
6506;BME280;3286;49.858;8.768;2023-02-21T11:38:39;99488.28;;;17.63;37.65
6506;BME280;3286;49.858;8.768;2023-02-21T11:41:27;99479.91;;;18.09;37.72
6506;BME280;3286;49.858;8.768;2023-02-21T11:43:56;99482.72;;;15.76;40.31
6506;BME280;3286;49.858;8.768;2023-02-21T11:46:33;99478.63;;;16.95;39.69
6506;BME280;3286;49.858;8.768;2023-02-21T11:49:07;99465.56;;;17.52;37.83
6506;BME280;3286;49.858;8.768;2023-02-21T11:51:43;99473.47;;;16.78;39.19
6506;BME280;3286;49.858;8.768;2023-02-21T11:54:12;99462.00;;;18.10;37.99
6506;BME280;3286;49.858;8.768;2023-02-21T11:56:58;99454.03;;;18.80;36.20
6506;BME280;3286;49.858;8.768;2023-02-21T11:59:37;99446.03;;;18.45;36.82
6506;BME280;3286;49.858;8.768;2023-02-21T12:02:31;99441.84;;;19.06;35.70
6506;BME280;3286;49.858;8.768;2023-02-21T12:05:12;99431.44;;;18.90;35.22
6506;BME280;3286;49.858;8.768;2023-02-21T12:07:48;99425.66;;;18.86;35.60
6506;BME280;3286;49.858;8.768;2023-02-21T12:10:34;99416.66;;;18.52;36.40
6506;BME280;3286;49.858;8.768;2023-02-21T12:13:15;99421.75;;;18.82;35.88
6506;BME280;3286;49.858;8.768;2023-02-21T12:15:57;99409.03;;;19.60;34.98
6506;BME280;3286;49.858;8.768;2023-02-21T12:18:41;99402.81;;;19.52;34.69
6506;BME280;3286;49.858;8.768;2023-02-21T12:21:24;99392.91;;;19.39;34.67
6506;BME280;3286;49.858;8.768;2023-02-21T12:24:01;99392.63;;;17.30;38.28
6506;BME280;3286;49.858;8.768;2023-02-21T12:26:46;99384.59;;;18.65;36.28
6506;BME280;3286;49.858;8.768;2023-02-21T12:29:25;99386.28;;;19.29;36.14
6506;BME280;3286;49.858;8.768;2023-02-21T12:32:09;99377.91;;;19.99;33.84
6506;BME280;3286;49.858;8.768;2023-02-21T12:34:53;99373.38;;;20.00;34.78
6506;BME280;3286;49.858;8.768;2023-02-21T12:37:31;99373.09;;;20.28;34.00
6506;BME280;3286;49.858;8.768;2023-02-21T12:40:18;99370.50;;;19.94;34.00
6506;BME280;3286;49.858;8.768;2023-02-21T12:43:00;99364.72;;;19.97;33.57
6506;BME280;3286;49.858;8.768;2023-02-21T12:45:50;99363.88;;;20.04;33.87
6506;BME280;3286;49.858;8.768;2023-02-21T12:48:26;99361.59;;;19.53;34.32
6506;BME280;3286;49.858;8.768;2023-02-21T12:50:56;99355.41;;;19.53;35.10
6506;BME280;3286;49.858;8.768;2023-02-21T12:53:30;99351.69;;;19.20;36.34
6506;BME280;3286;49.858;8.768;2023-02-21T12:56:02;99351.34;;;18.95;36.66
6506;BME280;3286;49.858;8.768;2023-02-21T12:58:34;99353.72;;;19.25;35.72
6506;BME280;3286;49.858;8.768;2023-02-21T13:01:04;99345.50;;;19.33;35.53
6506;BME280;3286;49.858;8.768;2023-02-21T13:03:46;99343.06;;;19.38;35.04
6506;BME280;3286;49.858;8.768;2023-02-21T13:06:20;99340.31;;;19.11;35.48
6506;BME280;3286;49.858;8.768;2023-02-21T13:08:58;99335.22;;;19.57;35.09
6506;BME280;3286;49.858;8.768;2023-02-21T13:11:32;99333.75;;;19.28;35.21
6506;BME280;3286;49.858;8.768;2023-02-21T13:14:01;99327.38;;;18.66;36.95
6506;BME280;3286;49.858;8.768;2023-02-21T13:16:30;99319.34;;;19.29;35.07
6506;BME280;3286;49.858;8.768;2023-02-21T13:19:02;99318.31;;;19.43;34.42
6506;BME280;3286;49.858;8.768;2023-02-21T13:21:47;99320.34;;;19.14;36.21
6506;BME280;3286;49.858;8.768;2023-02-21T13:24:25;99315.41;;;19.24;35.61
6506;BME280;3286;49.858;8.768;2023-02-21T13:27:24;99310.25;;;19.97;33.47
6506;BME280;3286;49.858;8.768;2023-02-21T13:30:02;99311.69;;;19.79;34.52
6506;BME280;3286;49.858;8.768;2023-02-21T13:32:36;99300.56;;;20.62;33.43
6506;BME280;3286;49.858;8.768;2023-02-21T13:35:07;99305.59;;;20.45;33.85
6506;BME280;3286;49.858;8.768;2023-02-21T13:37:42;99301.97;;;20.64;32.64
6506;BME280;3286;49.858;8.768;2023-02-21T13:40:18;99305.78;;;18.75;35.74
6506;BME280;3286;49.858;8.768;2023-02-21T13:42:47;99295.66;;;19.46;34.39
6506;BME280;3286;49.858;8.768;2023-02-21T13:45:17;99297.78;;;18.81;35.33
6506;BME280;3286;49.858;8.768;2023-02-21T13:50:52;99285.50;;;20.02;33.48
6506;BME280;3286;49.858;8.768;2023-02-21T13:53:20;99282.88;;;19.41;34.63
6506;BME280;3286;49.858;8.768;2023-02-21T13:58:50;99281.97;;;18.24;35.57
6506;BME280;3286;49.858;8.768;2023-02-21T14:01:50;99278.88;;;18.90;35.51
6506;BME280;3286;49.858;8.768;2023-02-21T14:10:23;99277.63;;;18.23;36.03
6506;BME280;3286;49.858;8.768;2023-02-21T14:12:53;99263.50;;;19.32;34.30
6506;BME280;3286;49.858;8.768;2023-02-21T14:15:21;99271.94;;;19.36;34.38
6506;BME280;3286;49.858;8.768;2023-02-21T14:17:50;99262.25;;;19.08;34.82
6506;BME280;3286;49.858;8.768;2023-02-21T14:20:21;99260.13;;;18.76;34.87